Transporter — 3FFV9 — position and weather

sailwx.info

Track history (hours):
 
Tides and Currents Weather Stations Pressure Air Temp Water Temp Dewpoint Dewpoint Depression Visibility Wind Speed Wind Dir Waves Ship Positions

Transporter

Last reported at 2018-Aug-12 18:55 UTC. Time now 2018-Aug-15 03:01 UTC.
Position N 32°49' E 014°37'.

; draft 6.7 m.

Type: Ship. MMSI: 353589000.

Date/timePositionNaut miles runAvg speedWind from/ knotsBaromVisibWave heightAir tempDewpointWater temp
2018-Aug-12 18:55N 32°49' E 014°37'816.4
2018-Aug-12 18:26N 32°45' E 014°29'  
2018-Aug-06 21:15N 42°04' E 029°03'416.2
2018-Aug-06 20:59N 42°09' E 029°02'1216.1
2018-Aug-06 20:16N 42°20' E 029°01'416.2
2018-Aug-06 20:00N 42°24' E 029°01'816.0
2018-Aug-06 19:30N 42°32' E 029°00'815.9
2018-Aug-06 19:00N 42°41' E 028°59'815.9
2018-Aug-06 18:30N 42°48' E 028°58'816.0
2018-Aug-06 18:00N 42°56' E 028°57'815.9
2018-Aug-06 17:31N 43°04' E 028°57'915.9
2018-Aug-06 16:58N 43°13' E 028°56'715.9
2018-Aug-06 16:30N 43°20' E 028°55'815.8
2018-Aug-06 16:00N 43°28' E 028°54'815.7
2018-Aug-06 15:30N 43°36' E 028°53'815.9
2018-Aug-06 15:00N 43°44' E 028°52'816.1
2018-Aug-06 14:30N 43°52' E 028°52'816.1
2018-Aug-06 14:00N 43°60' E 028°51'816.0
2018-Aug-06 13:30N 44°08' E 028°50'714.7
2018-Aug-06 13:00N 44°14' E 028°46'611.8
2018-Aug-06 12:30N 44°19' E 028°42'1 2.2
2018-Aug-06 11:55N 44°21' E 028°41'0 0.0
2018-Aug-06 11:25N 44°21' E 028°41'0 0.0
2018-Aug-06 10:58N 44°21' E 028°41'0 0.0
2018-Aug-06 10:28N 44°21' E 028°41'0 0.0
2018-Aug-06 09:49N 44°21' E 028°41'0 0.0
2018-Aug-06 09:28N 44°21' E 028°41'0 0.0
2018-Aug-06 08:52N 44°21' E 028°41'0 0.0
2018-Aug-06 08:28N 44°21' E 028°41'0 0.0
2018-Aug-06 07:58N 44°21' E 028°41'0 0.0
2018-Aug-06 07:19N 44°21' E 028°41'0 0.0
2018-Aug-06 06:58N 44°21' E 028°41'0 0.0
2018-Aug-06 06:22N 44°21' E 028°41'0 0.0
2018-Aug-06 05:58N 44°21' E 028°41'0 0.0
2018-Aug-06 05:28N 44°21' E 028°41'0 0.0
2018-Aug-06 04:58N 44°21' E 028°41'0 0.0
2018-Aug-06 04:28N 44°21' E 028°41'0 0.0
2018-Aug-06 03:55N 44°21' E 028°41'0 0.0
2018-Aug-06 03:28N 44°21' E 028°41'0 0.0
2018-Aug-06 02:58N 44°21' E 028°41'0 0.0
2018-Aug-06 02:25N 44°21' E 028°41'0 0.0
2018-Aug-06 01:55N 44°21' E 028°41'0 0.0
2018-Aug-06 01:25N 44°21' E 028°41'0 0.0
2018-Aug-06 00:58N 44°21' E 028°41'0 0.0
2018-Aug-06 00:25N 44°21' E 028°41'0 0.0
2018-Aug-05 23:58N 44°21' E 028°41'0 0.0
2018-Aug-05 23:28N 44°21' E 028°41'0 0.0
2018-Aug-05 22:58N 44°21' E 028°41'1 1.3
2018-Aug-05 22:30N 44°20' E 028°41'2 4.9
2018-Aug-05 22:00N 44°18' E 028°43'2 4.9
2018-Aug-05 21:30N 44°16' E 028°45'1 1.9
2018-Aug-05 21:00N 44°15' E 028°46'2 3.4
2018-Aug-05 20:30N 44°14' E 028°47'612.0
2018-Aug-05 20:00N 44°09' E 028°51'815.1
2018-Aug-05 19:30N 44°01' E 028°53'917.0
2018-Aug-05 19:00N 43°53' E 028°54'916.9
2018-Aug-05 18:30N 43°44' E 028°55'917.2
2018-Aug-05 18:01N 43°36' E 028°56'917.2
2018-Aug-05 17:31N 43°27' E 028°57'917.1
2018-Aug-05 17:01N 43°19' E 028°58'816.9
2018-Aug-05 16:30N 43°10' E 028°59'816.7
2018-Aug-05 16:01N 43°02' E 029°00'816.7
2018-Aug-05 15:31N 42°54' E 029°01'816.6
2018-Aug-05 15:00N 42°45' E 029°03'1716.7
2018-Aug-05 14:00N 42°28' E 029°05'816.5
2018-Aug-05 13:30N 42°20' E 029°05'816.5
2018-Aug-05 13:00N 42°12' E 029°07'2416.2
2018-Aug-05 11:33N 41°49' E 029°10'116.0
2018-Aug-05 11:30N 41°48' E 029°10'816.0
2018-Aug-05 11:00N 41°40' E 029°11'1916.0
2018-Aug-05 09:47N 41°21' E 029°14'  
Track history (hours):
 
Tides and Currents Weather Stations Pressure Air Temp Water Temp Dewpoint Dewpoint Depression Visibility Wind Speed Wind Dir Waves Ship Positions

Transporter

Last reported at 2018-Aug-12 18:55 UTC. Time now 2018-Aug-15 03:01 UTC.
Position N 32°49' E 014°37'.

; draft 6.7 m.

Type: Ship. MMSI: 353589000.

Date/timePositionNaut miles runAvg speedWind from/ knotsBaromVisibWave heightAir tempDewpointWater temp
2018-Aug-12 18:55N 32°49' E 014°37'816.4
2018-Aug-12 18:26N 32°45' E 014°29'  
2018-Aug-06 21:15N 42°04' E 029°03'416.2
2018-Aug-06 20:59N 42°09' E 029°02'1216.1
2018-Aug-06 20:16N 42°20' E 029°01'416.2
2018-Aug-06 20:00N 42°24' E 029°01'816.0
2018-Aug-06 19:30N 42°32' E 029°00'815.9
2018-Aug-06 19:00N 42°41' E 028°59'815.9
2018-Aug-06 18:30N 42°48' E 028°58'816.0
2018-Aug-06 18:00N 42°56' E 028°57'815.9
2018-Aug-06 17:31N 43°04' E 028°57'915.9
2018-Aug-06 16:58N 43°13' E 028°56'715.9
2018-Aug-06 16:30N 43°20' E 028°55'815.8
2018-Aug-06 16:00N 43°28' E 028°54'815.7
2018-Aug-06 15:30N 43°36' E 028°53'815.9
2018-Aug-06 15:00N 43°44' E 028°52'816.1
2018-Aug-06 14:30N 43°52' E 028°52'816.1
2018-Aug-06 14:00N 43°60' E 028°51'816.0
2018-Aug-06 13:30N 44°08' E 028°50'714.7
2018-Aug-06 13:00N 44°14' E 028°46'611.8
2018-Aug-06 12:30N 44°19' E 028°42'1 2.2
2018-Aug-06 11:55N 44°21' E 028°41'0 0.0
2018-Aug-06 11:25N 44°21' E 028°41'0 0.0
2018-Aug-06 10:58N 44°21' E 028°41'0 0.0
2018-Aug-06 10:28N 44°21' E 028°41'0 0.0
2018-Aug-06 09:49N 44°21' E 028°41'0 0.0
2018-Aug-06 09:28N 44°21' E 028°41'0 0.0
2018-Aug-06 08:52N 44°21' E 028°41'0 0.0
2018-Aug-06 08:28N 44°21' E 028°41'0 0.0
2018-Aug-06 07:58N 44°21' E 028°41'0 0.0
2018-Aug-06 07:19N 44°21' E 028°41'0 0.0
2018-Aug-06 06:58N 44°21' E 028°41'0 0.0
2018-Aug-06 06:22N 44°21' E 028°41'0 0.0
2018-Aug-06 05:58N 44°21' E 028°41'0 0.0
2018-Aug-06 05:28N 44°21' E 028°41'0 0.0
2018-Aug-06 04:58N 44°21' E 028°41'0 0.0
2018-Aug-06 04:28N 44°21' E 028°41'0 0.0
2018-Aug-06 03:55N 44°21' E 028°41'0 0.0
2018-Aug-06 03:28N 44°21' E 028°41'0 0.0
2018-Aug-06 02:58N 44°21' E 028°41'0 0.0
2018-Aug-06 02:25N 44°21' E 028°41'0 0.0
2018-Aug-06 01:55N 44°21' E 028°41'0 0.0
2018-Aug-06 01:25N 44°21' E 028°41'0 0.0
2018-Aug-06 00:58N 44°21' E 028°41'0 0.0
2018-Aug-06 00:25N 44°21' E 028°41'0 0.0
2018-Aug-05 23:58N 44°21' E 028°41'0 0.0
2018-Aug-05 23:28N 44°21' E 028°41'0 0.0
2018-Aug-05 22:58N 44°21' E 028°41'1 1.3
2018-Aug-05 22:30N 44°20' E 028°41'2 4.9
2018-Aug-05 22:00N 44°18' E 028°43'2 4.9
2018-Aug-05 21:30N 44°16' E 028°45'1 1.9
2018-Aug-05 21:00N 44°15' E 028°46'2 3.4
2018-Aug-05 20:30N 44°14' E 028°47'612.0
2018-Aug-05 20:00N 44°09' E 028°51'815.1
2018-Aug-05 19:30N 44°01' E 028°53'917.0
2018-Aug-05 19:00N 43°53' E 028°54'916.9
2018-Aug-05 18:30N 43°44' E 028°55'917.2
2018-Aug-05 18:01N 43°36' E 028°56'917.2
2018-Aug-05 17:31N 43°27' E 028°57'917.1
2018-Aug-05 17:01N 43°19' E 028°58'816.9
2018-Aug-05 16:30N 43°10' E 028°59'816.7
2018-Aug-05 16:01N 43°02' E 029°00'816.7
2018-Aug-05 15:31N 42°54' E 029°01'816.6
2018-Aug-05 15:00N 42°45' E 029°03'1716.7
2018-Aug-05 14:00N 42°28' E 029°05'816.5
2018-Aug-05 13:30N 42°20' E 029°05'816.5
2018-Aug-05 13:00N 42°12' E 029°07'2416.2
2018-Aug-05 11:33N 41°49' E 029°10'116.0
2018-Aug-05 11:30N 41°48' E 029°10'816.0
2018-Aug-05 11:00N 41°40' E 029°11'1916.0
2018-Aug-05 09:47N 41°21' E 029°14'  

Dump ship's entire track history